KDCU/DCU METAR and TAF weather

Enter ICAO airport designator
Station Type Date Time Source
KDCU METAR 2022/11/26 08:53 UTC NOAA

KDCU 260853Z AUTO 03005KT 10SM CLR 08/07 A3015 RMK AO2 SLP209 T00830067 58005


Station Type Date Time Source
KDCU Decoded METAR 2022/11/26 08:53 UTC NOAA

PRYOR FIELD, AL, United States (KDCU) 34-39N 086-57W 176M
Nov 26, 2022 - 03:53 AM EST / 2022.11.26 0853 UTC
Wind: from the NNE (030 degrees) at 6 MPH (5 KT):0
Visibility: 10 mile(s):0
Sky conditions: clear
Temperature: 46.9 F (8.3 C)
Dew Point: 44.1 F (6.7 C)
Relative Humidity: 89%
Pressure (altimeter): 30.15 in. Hg (1020 hPa)
Pressure tendency: 0.01 inches (0.5 hPa) lower than three hours ago
ob: KDCU 260853Z AUTO 03005KT 10SM CLR 08/07 A3015 RMK AO2 SLP209 T00830067 58005
cycle: 9

Station Type Date Time Source
KDCU TAF UTC NOAA

Error!

Example: see airport list